createdAt,value
2022-08-12T00:00:17.080Z,21.02
2022-08-12T00:03:25.708Z,20.98
2022-08-12T00:06:16.336Z,20.94
2022-08-12T00:09:07.041Z,20.93
2022-08-12T00:11:56.683Z,20.90
2022-08-12T00:14:46.744Z,20.86
2022-08-12T00:17:36.836Z,20.83
2022-08-12T00:20:29.845Z,20.82
2022-08-12T00:23:20.157Z,20.79
2022-08-12T00:26:23.184Z,20.77
2022-08-12T00:29:14.935Z,20.76
2022-08-12T00:32:05.032Z,20.74
2022-08-12T00:34:55.332Z,20.69
2022-08-12T00:37:44.832Z,20.71
2022-08-12T00:40:35.701Z,20.72
2022-08-12T00:43:12.152Z,20.69
2022-08-12T00:46:03.230Z,20.69
2022-08-12T00:48:36.003Z,20.67
2022-08-12T00:51:09.769Z,20.63
2022-08-12T00:53:42.022Z,20.61
2022-08-12T00:56:14.077Z,20.60
2022-08-12T00:58:52.576Z,20.59
2022-08-12T01:01:25.649Z,20.57
2022-08-12T01:04:23.616Z,20.59
2022-08-12T01:07:16.828Z,20.60
2022-08-12T01:10:08.856Z,20.59
2022-08-12T01:12:42.760Z,20.59
2022-08-12T01:15:16.715Z,20.57
2022-08-12T01:17:50.154Z,20.55
2022-08-12T01:20:38.185Z,20.54
2022-08-12T01:23:36.495Z,20.52
2022-08-12T01:26:11.669Z,20.51
2022-08-12T01:28:45.495Z,20.49
2022-08-12T01:31:19.811Z,20.49
2022-08-12T01:34:00.771Z,20.47
2022-08-12T01:36:41.181Z,20.46
2022-08-12T01:39:15.999Z,20.46
2022-08-12T01:41:52.086Z,20.45
2022-08-12T01:44:27.302Z,20.45
2022-08-12T01:47:07.273Z,20.44
2022-08-12T01:50:05.631Z,20.44
2022-08-12T01:52:49.667Z,20.37
2022-08-12T01:55:23.996Z,20.25
2022-08-12T01:58:08.510Z,20.37
2022-08-12T02:00:56.081Z,20.35
2022-08-12T02:04:10.591Z,20.34
2022-08-12T02:07:11.165Z,20.33
2022-08-12T02:10:50.609Z,20.31
2022-08-12T02:13:48.605Z,20.21
2022-08-12T02:16:22.954Z,20.26
2022-08-12T02:19:22.423Z,20.26
2022-08-12T02:22:05.711Z,20.13
2022-08-12T02:24:41.912Z,20.26
2022-08-12T02:27:16.537Z,20.25
2022-08-12T02:29:49.404Z,20.23
2022-08-12T02:32:22.264Z,20.22
2022-08-12T02:34:57.154Z,20.20
2022-08-12T02:37:27.936Z,20.20
2022-08-12T02:40:03.579Z,20.20
2022-08-12T02:42:37.289Z,20.18
2022-08-12T02:45:12.953Z,20.16
2022-08-12T02:47:59.695Z,20.12
2022-08-12T02:50:36.465Z,20.11
2022-08-12T02:53:09.355Z,20.11
2022-08-12T02:55:45.735Z,20.09
2022-08-12T02:58:19.819Z,20.08
2022-08-12T03:00:52.912Z,20.03
2022-08-12T03:03:31.064Z,20.00
2022-08-12T03:06:07.210Z,19.98
2022-08-12T03:08:43.546Z,19.87
2022-08-12T03:11:24.716Z,19.89
2022-08-12T03:14:01.545Z,19.83
2022-08-12T03:16:36.749Z,19.81
2022-08-12T03:19:09.376Z,19.68
2022-08-12T03:21:52.738Z,19.69
2022-08-12T03:24:42.985Z,19.56
2022-08-12T03:27:16.713Z,19.60
2022-08-12T03:29:51.407Z,19.59
2022-08-12T03:32:35.227Z,19.58
2022-08-12T03:35:36.957Z,19.51
2022-08-12T03:38:11.601Z,19.58
2022-08-12T03:41:14.622Z,19.61
2022-08-12T03:44:14.848Z,19.60
2022-08-12T03:47:12.544Z,19.59
2022-08-12T03:50:02.196Z,19.61
2022-08-12T03:52:51.575Z,19.65
2022-08-12T03:55:41.777Z,19.71
2022-08-12T03:58:32.513Z,19.76
2022-08-12T04:01:06.223Z,19.78
2022-08-12T04:03:53.969Z,19.85
2022-08-12T04:06:34.979Z,19.86
2022-08-12T04:09:16.588Z,19.88
2022-08-12T04:12:08.450Z,19.89
2022-08-12T04:14:43.154Z,19.88
2022-08-12T04:17:16.585Z,19.87
2022-08-12T04:19:50.865Z,19.86
2022-08-12T04:22:23.466Z,19.86
2022-08-12T04:24:56.260Z,19.85
2022-08-12T04:27:32.017Z,19.70
2022-08-12T04:30:30.842Z,19.82
2022-08-12T04:32:58.173Z,19.82
2022-08-12T04:35:30.985Z,19.74
2022-08-12T04:38:03.423Z,19.82
2022-08-12T04:40:37.795Z,19.82
2022-08-12T04:43:59.917Z,19.84
2022-08-12T04:46:04.697Z,19.84
2022-08-12T04:48:36.656Z,19.84
2022-08-12T04:51:10.028Z,19.84
2022-08-12T04:53:46.869Z,19.85
2022-08-12T04:56:19.408Z,19.85
2022-08-12T04:58:52.790Z,19.86
2022-08-12T05:01:27.954Z,19.89
2022-08-12T05:04:02.912Z,19.88
2022-08-12T05:06:35.036Z,19.76
2022-08-12T05:09:11.195Z,19.95
2022-08-12T05:11:53.856Z,20.01
2022-08-12T05:14:26.933Z,20.06
2022-08-12T05:17:00.448Z,20.12
2022-08-12T05:19:34.624Z,20.19
2022-08-12T05:22:09.428Z,20.19
2022-08-12T05:24:42.455Z,20.33
2022-08-12T05:27:14.917Z,20.41
2022-08-12T05:30:07.867Z,20.48
2022-08-12T05:32:47.072Z,20.54
2022-08-12T05:35:19.115Z,20.63
2022-08-12T05:38:15.726Z,20.70
2022-08-12T05:40:48.652Z,20.75
2022-08-12T05:43:21.665Z,20.81
2022-08-12T05:45:54.448Z,20.85
2022-08-12T05:48:28.410Z,20.94
2022-08-12T05:51:00.430Z,21.01
2022-08-12T05:53:32.618Z,21.09
2022-08-12T05:56:05.574Z,21.14
2022-08-12T05:58:37.758Z,21.20
2022-08-12T06:02:09.752Z,21.28
2022-08-12T06:04:02.835Z,21.36
2022-08-12T06:06:39.728Z,21.44
2022-08-12T06:09:12.289Z,21.52
2022-08-12T06:12:05.089Z,21.60
2022-08-12T06:14:39.454Z,21.64
2022-08-12T06:17:12.452Z,21.66
2022-08-12T06:20:26.015Z,21.69
2022-08-12T06:22:37.488Z,21.77
2022-08-12T06:25:10.527Z,21.86
2022-08-12T06:28:07.973Z,21.94
2022-08-12T06:30:41.328Z,22.08
2022-08-12T06:33:25.124Z,22.15
2022-08-12T06:36:07.762Z,22.15
2022-08-12T06:38:41.520Z,22.22
2022-08-12T06:41:31.470Z,22.25
2022-08-12T06:44:07.927Z,22.29
2022-08-12T06:46:40.470Z,22.29
2022-08-12T06:49:13.398Z,22.32
2022-08-12T06:51:53.564Z,22.44
2022-08-12T06:54:31.817Z,22.50
2022-08-12T06:58:08.248Z,22.57
2022-08-12T06:59:56.991Z,22.63
2022-08-12T07:02:31.519Z,22.68
2022-08-12T07:05:07.223Z,22.74
2022-08-12T07:07:39.481Z,22.81
2022-08-12T07:10:12.293Z,22.93
2022-08-12T07:12:45.337Z,22.98
2022-08-12T07:15:18.706Z,23.04
2022-08-12T07:17:51.379Z,23.06
2022-08-12T07:20:50.783Z,23.12
2022-08-12T07:23:16.367Z,23.22
2022-08-12T07:25:48.600Z,23.31
2022-08-12T07:28:23.682Z,23.38
2022-08-12T07:30:57.117Z,23.39
2022-08-12T07:33:31.287Z,23.54
2022-08-12T07:36:06.391Z,23.64
2022-08-12T07:38:42.421Z,23.73
2022-08-12T07:41:17.178Z,23.82
2022-08-12T07:43:48.987Z,23.86
2022-08-12T07:46:23.226Z,23.95
2022-08-12T07:48:57.324Z,24.10
2022-08-12T07:51:30.462Z,24.20
2022-08-12T07:54:04.484Z,24.25
2022-08-12T07:56:38.360Z,24.33
2022-08-12T07:59:11.275Z,24.41
2022-08-12T08:01:43.662Z,24.42
2022-08-12T08:04:33.269Z,24.43
2022-08-12T08:07:10.704Z,24.50
2022-08-12T08:09:42.803Z,24.62
2022-08-12T08:12:32.369Z,24.71
2022-08-12T08:15:05.093Z,24.69
2022-08-12T08:17:37.501Z,24.74
2022-08-12T08:20:14.356Z,24.79
2022-08-12T08:22:46.446Z,24.81
2022-08-12T08:25:36.235Z,24.81
2022-08-12T08:28:12.594Z,24.86
2022-08-12T08:30:50.555Z,24.91
2022-08-12T08:34:04.938Z,25.07
2022-08-12T08:36:23.939Z,25.20
2022-08-12T08:38:58.546Z,25.33
2022-08-12T08:42:13.803Z,25.34
2022-08-12T08:44:58.399Z,25.59
2022-08-12T08:47:31.091Z,25.73
2022-08-12T08:50:04.054Z,25.78
2022-08-12T08:52:40.357Z,25.92
2022-08-12T08:55:18.621Z,26.12
2022-08-12T08:57:56.141Z,26.23
2022-08-12T09:00:29.736Z,26.25
2022-08-12T09:03:04.247Z,26.42
2022-08-12T09:06:02.448Z,26.56
2022-08-12T09:08:35.366Z,26.60
2022-08-12T09:12:07.198Z,26.73
2022-08-12T09:14:18.949Z,27.03
2022-08-12T09:17:01.417Z,27.22
2022-08-12T09:19:33.907Z,27.35
2022-08-12T09:22:08.704Z,27.45
2022-08-12T09:24:40.872Z,27.53
2022-08-12T09:27:17.571Z,27.65
2022-08-12T09:30:10.587Z,27.74
2022-08-12T09:33:04.179Z,27.81
2022-08-12T09:35:42.977Z,27.91
2022-08-12T09:38:29.833Z,27.88
2022-08-12T09:42:09.073Z,27.94
2022-08-12T09:44:38.465Z,28.00
2022-08-12T09:47:04.323Z,27.81
2022-08-12T09:49:43.056Z,27.96
2022-08-12T09:52:16.728Z,27.91
2022-08-12T09:54:56.283Z,27.92
2022-08-12T09:58:46.933Z,27.88
2022-08-12T10:00:30.566Z,28.08
2022-08-12T10:03:31.816Z,28.20
2022-08-12T10:06:19.559Z,28.34
2022-08-12T10:08:59.073Z,28.46
2022-08-12T10:12:12.051Z,28.47
2022-08-12T10:14:50.214Z,28.39
2022-08-12T10:17:56.783Z,28.32
2022-08-12T10:20:38.390Z,28.56
2022-08-12T10:23:12.714Z,28.71
2022-08-12T10:26:36.103Z,28.88
2022-08-12T10:30:02.902Z,28.99
2022-08-12T10:32:22.118Z,29.01
2022-08-12T10:35:01.006Z,29.10
2022-08-12T10:38:38.808Z,28.92
2022-08-12T10:40:31.625Z,29.19
2022-08-12T10:43:22.742Z,29.36
2022-08-12T10:45:58.310Z,29.52
2022-08-12T10:48:34.169Z,29.67
2022-08-12T10:52:03.018Z,29.82
2022-08-12T10:54:00.731Z,29.95
2022-08-12T10:56:35.464Z,30.01
2022-08-12T10:59:10.940Z,29.94
2022-08-12T11:04:17.244Z,29.89
2022-08-12T11:04:48.931Z,29.59
2022-08-12T11:08:37.758Z,29.74
2022-08-12T11:10:14.414Z,29.93
2022-08-12T11:12:59.950Z,30.03
2022-08-12T11:16:03.779Z,30.16
2022-08-12T11:18:26.687Z,30.36
2022-08-12T11:21:01.049Z,30.52
2022-08-12T11:23:45.781Z,30.63
2022-08-12T11:26:26.237Z,30.55
2022-08-12T11:29:05.370Z,30.71
2022-08-12T11:31:56.046Z,30.41
2022-08-12T11:34:52.730Z,30.32
2022-08-12T11:37:25.467Z,30.63
2022-08-12T11:42:46.399Z,30.77
2022-08-12T11:45:20.024Z,30.51
2022-08-12T11:47:55.536Z,30.24
2022-08-12T11:50:32.203Z,30.49
2022-08-12T11:53:04.589Z,30.71
2022-08-12T11:55:57.162Z,30.70
2022-08-12T11:59:44.407Z,30.78
2022-08-12T12:02:01.025Z,30.87
2022-08-12T12:04:22.639Z,30.98
2022-08-12T12:07:06.740Z,31.14
2022-08-12T12:09:51.984Z,31.14
2022-08-12T12:12:26.610Z,31.19
2022-08-12T12:15:03.142Z,31.16
2022-08-12T12:17:40.265Z,31.12
2022-08-12T12:20:14.016Z,31.08
2022-08-12T12:22:46.829Z,31.07
2022-08-12T12:25:19.783Z,31.23
2022-08-12T12:28:05.973Z,31.43
2022-08-12T12:30:39.764Z,31.37
2022-08-12T12:33:27.031Z,31.05
2022-08-12T12:36:24.064Z,30.91
2022-08-12T12:39:02.077Z,30.92
2022-08-12T12:42:43.280Z,31.01
2022-08-12T12:44:38.637Z,31.08
2022-08-12T12:47:28.918Z,30.85
2022-08-12T12:50:02.365Z,30.65
2022-08-12T12:52:38.336Z,30.59
2022-08-12T12:55:16.455Z,30.66
2022-08-12T12:58:00.476Z,30.52
2022-08-12T13:00:34.031Z,30.73
2022-08-12T13:03:06.342Z,30.89
2022-08-12T13:05:53.765Z,30.91
2022-08-12T13:08:28.335Z,30.88
2022-08-12T13:11:09.216Z,30.74
2022-08-12T13:14:07.731Z,30.83
2022-08-12T13:16:33.964Z,30.85
2022-08-12T13:19:07.699Z,30.79
2022-08-12T13:22:00.364Z,30.89
2022-08-12T13:24:32.482Z,30.80
2022-08-12T13:27:05.108Z,30.70
2022-08-12T13:29:39.197Z,30.66
2022-08-12T13:32:30.819Z,30.65
2022-08-12T13:35:20.204Z,30.86
2022-08-12T13:37:58.223Z,30.98
2022-08-12T13:40:33.599Z,31.21
2022-08-12T13:43:07.125Z,31.41
2022-08-12T13:45:39.552Z,31.56
2022-08-12T13:48:11.941Z,31.79
2022-08-12T13:50:44.433Z,31.93
2022-08-12T13:53:23.986Z,31.73
2022-08-12T13:56:02.280Z,31.55
2022-08-12T13:58:37.559Z,31.37
2022-08-12T14:01:09.800Z,31.19
2022-08-12T14:03:51.457Z,31.03
2022-08-12T14:06:25.964Z,30.84
2022-08-12T14:09:15.671Z,30.65
2022-08-12T14:11:59.503Z,30.50
2022-08-12T14:14:35.577Z,30.40
2022-08-12T14:17:09.941Z,30.37
2022-08-12T14:20:02.579Z,30.29
2022-08-12T14:22:35.438Z,30.19
2022-08-12T14:25:10.990Z,30.09
2022-08-12T14:28:04.023Z,30.07
2022-08-12T14:30:39.623Z,29.98
2022-08-12T14:33:43.227Z,30.03
2022-08-12T14:36:15.789Z,30.06
2022-08-12T14:38:48.197Z,30.07
2022-08-12T14:41:23.359Z,30.04
2022-08-12T14:44:59.000Z,30.05
2022-08-12T14:47:01.124Z,30.04
2022-08-12T14:50:41.362Z,30.05
2022-08-12T14:52:58.919Z,30.10
2022-08-12T14:58:27.074Z,30.13
2022-08-12T15:01:16.215Z,30.10
2022-08-12T15:03:56.769Z,30.09
2022-08-12T15:06:44.261Z,30.08
2022-08-12T15:09:28.996Z,30.11
2022-08-12T15:12:04.023Z,30.08
2022-08-12T15:14:38.028Z,30.06
2022-08-12T15:17:10.720Z,30.03
2022-08-12T15:20:30.824Z,29.97
2022-08-12T15:22:55.625Z,29.90
2022-08-12T15:25:27.853Z,29.84
2022-08-12T15:28:04.600Z,29.77
2022-08-12T15:30:39.510Z,29.70
2022-08-12T15:33:18.681Z,29.56
2022-08-12T15:35:53.903Z,29.56
2022-08-12T15:38:28.249Z,29.49
2022-08-12T15:41:01.265Z,29.47
2022-08-12T15:43:51.594Z,29.44
2022-08-12T15:46:32.677Z,29.37
2022-08-12T15:49:16.869Z,29.31
2022-08-12T15:51:59.536Z,29.28
2022-08-12T15:54:42.276Z,29.24
2022-08-12T15:57:17.339Z,29.19
2022-08-12T16:00:00.590Z,29.19
2022-08-12T16:02:50.404Z,29.15
2022-08-12T16:06:13.211Z,29.15
2022-08-12T16:08:26.997Z,29.09
2022-08-12T16:11:00.281Z,29.07
2022-08-12T16:13:40.276Z,29.06
2022-08-12T16:16:23.681Z,29.05
2022-08-12T16:19:00.818Z,29.03
2022-08-12T16:21:52.496Z,29.00
2022-08-12T16:24:27.593Z,28.95
2022-08-12T16:26:59.951Z,28.90
2022-08-12T16:29:52.934Z,28.86
2022-08-12T16:32:31.120Z,28.83
2022-08-12T16:35:06.434Z,28.81
2022-08-12T16:38:25.115Z,28.77
2022-08-12T16:40:34.131Z,28.73
2022-08-12T16:43:25.434Z,28.70
2022-08-12T16:46:05.681Z,28.67
2022-08-12T16:48:55.129Z,28.60
2022-08-12T16:51:28.103Z,28.55
2022-08-12T16:54:00.644Z,28.54
2022-08-12T16:56:33.820Z,28.49
2022-08-12T16:59:15.791Z,28.41
2022-08-12T17:01:49.655Z,28.42
2022-08-12T17:04:24.439Z,28.39
2022-08-12T17:06:57.013Z,28.32
2022-08-12T17:09:34.349Z,28.34
2022-08-12T17:12:12.779Z,28.28
2022-08-12T17:14:47.257Z,28.21
2022-08-12T17:17:39.200Z,28.18
2022-08-12T17:20:34.982Z,28.15
2022-08-12T17:23:14.099Z,28.08
2022-08-12T17:25:49.003Z,28.07
2022-08-12T17:28:23.869Z,28.05
2022-08-12T17:30:59.666Z,28.01
2022-08-12T17:33:33.912Z,27.96
2022-08-12T17:36:08.655Z,27.93
2022-08-12T17:38:43.547Z,27.90
2022-08-12T17:41:56.645Z,27.85
2022-08-12T17:44:16.628Z,27.81
2022-08-12T17:46:53.652Z,27.77
2022-08-12T17:50:03.532Z,27.72
2022-08-12T17:52:20.942Z,27.65
2022-08-12T17:54:58.660Z,27.59
2022-08-12T17:57:31.664Z,27.56
2022-08-12T18:00:12.763Z,27.49
2022-08-12T18:02:46.663Z,27.43
2022-08-12T18:05:19.900Z,27.36
2022-08-12T18:07:57.981Z,27.31
2022-08-12T18:10:53.084Z,27.21
2022-08-12T18:13:40.699Z,27.08
2022-08-12T18:16:24.518Z,26.98
2022-08-12T18:19:02.030Z,26.80
2022-08-12T18:22:02.103Z,26.89
2022-08-12T18:24:29.439Z,26.79
2022-08-12T18:27:30.170Z,26.83
2022-08-12T18:29:55.571Z,26.84
2022-08-12T18:32:44.304Z,26.80
2022-08-12T18:35:22.788Z,26.74
2022-08-12T18:38:13.340Z,26.70
2022-08-12T18:41:10.108Z,26.63
2022-08-12T18:43:58.492Z,26.57
2022-08-12T18:46:46.823Z,26.52
2022-08-12T18:49:28.023Z,26.45
2022-08-12T18:52:05.182Z,26.38
2022-08-12T18:54:49.322Z,26.33
2022-08-12T18:58:07.005Z,26.20
2022-08-12T19:00:25.123Z,26.21
2022-08-12T19:02:57.488Z,26.14
2022-08-12T19:05:53.196Z,26.09
2022-08-12T19:08:26.660Z,26.03
2022-08-12T19:11:21.802Z,25.98
2022-08-12T19:14:12.129Z,25.92
2022-08-12T19:16:52.605Z,25.86
2022-08-12T19:19:25.458Z,25.82
2022-08-12T19:21:58.148Z,25.77
2022-08-12T19:24:48.640Z,25.73
2022-08-12T19:27:21.526Z,25.68
2022-08-12T19:30:06.555Z,25.64
2022-08-12T19:32:41.645Z,25.60
2022-08-12T19:38:07.971Z,25.52
2022-08-12T19:40:43.005Z,25.48
2022-08-12T19:43:21.825Z,25.45
2022-08-12T19:45:57.277Z,25.40
2022-08-12T19:48:32.728Z,25.36
2022-08-12T19:51:09.010Z,25.32
2022-08-12T19:53:57.541Z,25.28
2022-08-12T19:56:32.451Z,25.24
2022-08-12T19:59:22.967Z,25.20
2022-08-12T20:02:03.333Z,25.17
2022-08-12T20:04:40.464Z,25.14
2022-08-12T20:07:23.661Z,25.11
2022-08-12T20:09:58.967Z,25.08
2022-08-12T20:12:32.974Z,25.06
2022-08-12T20:15:09.240Z,25.02
2022-08-12T20:17:50.733Z,24.98
2022-08-12T20:20:27.722Z,24.94
2022-08-12T20:23:06.390Z,24.89
2022-08-12T20:25:52.648Z,24.85
2022-08-12T20:28:31.863Z,24.82
2022-08-12T20:31:04.349Z,24.71
2022-08-12T20:33:50.608Z,24.75
2022-08-12T20:36:42.963Z,24.71
2022-08-12T20:39:52.988Z,24.68
2022-08-12T20:42:11.960Z,24.64
2022-08-12T20:44:44.832Z,24.61
2022-08-12T20:47:29.509Z,24.58
2022-08-12T20:51:06.349Z,24.55
2022-08-12T20:54:58.664Z,24.52
2022-08-12T20:57:38.040Z,24.50
2022-08-12T21:00:30.168Z,24.49
2022-08-12T21:03:32.609Z,24.49
2022-08-12T21:06:25.068Z,24.49
2022-08-12T21:09:01.734Z,24.49
2022-08-12T21:11:36.606Z,24.50
2022-08-12T21:14:10.632Z,24.49
2022-08-12T21:16:43.025Z,24.50
2022-08-12T21:19:25.804Z,24.51
2022-08-12T21:22:24.817Z,24.51
2022-08-12T21:24:58.185Z,24.52
2022-08-12T21:27:58.983Z,24.51
2022-08-12T21:30:27.333Z,24.47
2022-08-12T21:33:10.491Z,24.52
2022-08-12T21:35:47.651Z,24.51
2022-08-12T21:38:22.743Z,24.48
2022-08-12T21:40:56.271Z,24.31
2022-08-12T21:43:29.134Z,24.43
2022-08-12T21:46:34.688Z,24.39
2022-08-12T21:49:09.630Z,24.35
2022-08-12T21:51:50.279Z,24.32
2022-08-12T21:54:24.907Z,24.30
2022-08-12T21:56:59.793Z,24.30
2022-08-12T21:59:32.248Z,24.30
2022-08-12T22:02:30.910Z,24.30
2022-08-12T22:05:20.583Z,24.32
2022-08-12T22:07:55.207Z,24.32
2022-08-12T22:10:31.215Z,24.23
2022-08-12T22:13:03.397Z,24.30
2022-08-12T22:15:38.100Z,24.30
2022-08-12T22:18:12.951Z,24.32
2022-08-12T22:20:48.787Z,24.31
2022-08-12T22:23:28.494Z,24.31
2022-08-12T22:26:29.098Z,24.32
2022-08-12T22:29:19.092Z,24.33
2022-08-12T22:31:53.822Z,24.29
2022-08-12T22:34:33.475Z,24.34
2022-08-12T22:37:05.874Z,24.34
2022-08-12T22:39:44.851Z,24.34
2022-08-12T22:42:34.177Z,24.34
2022-08-12T22:45:23.885Z,24.34
2022-08-12T22:47:57.054Z,24.33
2022-08-12T22:50:29.854Z,24.33
2022-08-12T22:53:16.231Z,24.32
2022-08-12T22:55:59.733Z,24.34
2022-08-12T22:58:41.208Z,24.34
2022-08-12T23:01:13.698Z,24.34
2022-08-12T23:03:54.189Z,24.33
2022-08-12T23:06:28.798Z,24.31
2022-08-12T23:09:02.091Z,24.28
2022-08-12T23:11:40.825Z,24.27
2022-08-12T23:14:14.135Z,24.28
2022-08-12T23:16:49.559Z,24.28
2022-08-12T23:19:38.213Z,24.30
2022-08-12T23:23:05.878Z,24.32
2022-08-12T23:25:02.560Z,24.32
2022-08-12T23:27:55.965Z,24.33
2022-08-12T23:30:32.190Z,24.34
2022-08-12T23:33:13.569Z,24.35
2022-08-12T23:36:03.389Z,24.39
2022-08-12T23:38:36.199Z,24.40
2022-08-12T23:41:15.204Z,24.42
2022-08-12T23:43:50.213Z,24.46
2022-08-12T23:46:25.797Z,24.47
2022-08-12T23:49:00.934Z,24.48
2022-08-12T23:51:36.534Z,24.50
2022-08-12T23:54:17.795Z,24.52
2022-08-12T23:57:11.271Z,24.52
2022-08-12T23:59:47.399Z,24.53
